X  Close Metar Aviation Weather Data     KJAC Jackson Hole Airport
Temperature
11°C Temperature
-4°C Dewpoint
35% Humidity



Wind
4 M/S
9 MPH
14 KM/H
8 KTS



340°
NNW
Current Conditions

Overcast Overcast
Pressure 1011.51 (hPa) - 29.87 (inHg)
Visibility 10 (mile) - 16.1 (km)
Airport
Airport-code KJAC

Location: Jackson Hole Airport
Distance: 79 (km)

Metar:
KJAC 150156Z 34008KT 10SM OVC100 11/M04 A2987 RMK AO2 SLP113 T01111044

Time: 04-15-2024 01:56 MDT